Time;durP1;ratioP1;P1;durP2;ratioP2;P2;SDS_P1;SDS_P2;PMS_P1;PMS_P2;Temp;Humidity;BMP_temperature;BMP_pressure;BME280_temperature;BME280_humidity;BME280_pressure;Samples;Min_cycle;Max_cycle;Signal;HPM_P1;HPM_P2
2021/11/19 00:01:39;;;;;;;10.07;3.92;;;;;;;;;;4955549;28;20046;-95
2021/11/19 00:04:08;;;;;;;12.37;3.83;;;;;;;;;;4956600;28;20405;-94
2021/11/19 00:06:37;;;;;;;17.10;5.03;;;;;;;;;;4960374;28;20069;-94
2021/11/19 00:09:07;;;;;;;16.42;5.38;;;;;;;;;;4960139;28;20494;-94
2021/11/19 00:11:40;;;;;;;8.80;4.28;;;;;;;;;;4977627;28;20061;-94
2021/11/19 00:14:10;;;;;;;11.98;4.63;;;;;;;;;;4982785;28;20054;-95
2021/11/19 00:16:44;;;;;;;10.30;4.50;;;;;;;;;;4962509;28;20381;-93
2021/11/19 00:19:14;;;;;;;12.90;4.78;;;;;;;;;;4956868;28;20082;-95
2021/11/19 00:21:44;;;;;;;11.48;4.70;;;;;;;;;;4969035;28;20108;-93
2021/11/19 00:24:14;;;;;;;13.57;4.65;;;;;;;;;;4982088;28;20361;-93
2021/11/19 00:26:45;;;;;;;14.38;4.32;;;;;;;;;;4969566;28;20051;-94
2021/11/19 00:29:16;;;;;;;10.40;3.73;;;;;;;;;;4989045;28;20051;-94
2021/11/19 00:31:47;;;;;;;13.60;5.20;;;;;;;;;;4977807;28;20070;-94
2021/11/19 00:34:17;;;;;;;13.48;4.72;;;;;;;;;;4973281;28;20042;-93
2021/11/19 00:36:47;;;;;;;12.27;4.20;;;;;;;;;;4972566;28;20434;-96
2021/11/19 00:39:18;;;;;;;10.13;4.20;;;;;;;;;;4977578;28;20054;-94
2021/11/19 00:41:49;;;;;;;13.07;4.23;;;;;;;;;;4980507;28;20149;-92
2021/11/19 00:44:19;;;;;;;14.25;4.55;;;;;;;;;;4981343;28;20119;-93
2021/11/19 00:46:53;;;;;;;10.57;3.70;;;;;;;;;;4968139;28;20113;-94
2021/11/19 00:49:26;;;;;;;14.85;4.22;;;;;;;;;;4965036;28;20082;-94
2021/11/19 00:52:03;;;;;;;12.38;3.85;;;;;;;;;;4953398;28;20454;-94
2021/11/19 00:54:34;;;;;;;8.27;3.70;;;;;;;;;;4965698;28;20066;-95
2021/11/19 00:57:09;;;;;;;10.80;4.22;;;;;;;;;;4982846;28;20481;-93
2021/11/19 00:59:39;;;;;;;10.10;4.22;;;;;;;;;;4978727;28;20051;-94
2021/11/19 01:02:12;;;;;;;8.85;4.00;;;;;;;;;;4963920;28;20097;-94
2021/11/19 01:04:42;;;;;;;11.07;4.53;;;;;;;;;;4956732;28;20408;-94
2021/11/19 01:07:13;;;;;;;12.20;4.03;;;;;;;;;;4966425;28;20047;-93
2021/11/19 01:09:44;;;;;;;17.08;4.15;;;;;;;;;;4968959;28;20074;-97
2021/11/19 01:12:16;;;;;;;20.80;4.10;;;;;;;;;;4973047;28;20054;-92
2021/11/19 01:14:47;;;;;;;7.43;3.70;;;;;;;;;;4958939;28;20050;-93
2021/11/19 01:17:18;;;;;;;13.98;4.53;;;;;;;;;;4958753;28;20076;-94
2021/11/19 01:19:49;;;;;;;13.17;4.07;;;;;;;;;;4952236;28;20133;-94
2021/11/19 01:22:22;;;;;;;13.90;4.57;;;;;;;;;;4961055;28;20046;-93
2021/11/19 01:24:57;;;;;;;12.70;4.20;;;;;;;;;;4973374;28;20038;-93
2021/11/19 01:27:28;;;;;;;12.35;3.95;;;;;;;;;;4960958;28;20512;-95
2021/11/19 01:29:58;;;;;;;12.68;4.40;;;;;;;;;;4954080;28;20105;-94
2021/11/19 01:32:38;;;;;;;7.87;2.90;;;;;;;;;;4967106;28;20494;-93
2021/11/19 01:35:18;;;;;;;12.10;4.25;;;;;;;;;;4984631;28;20105;-92
2021/11/19 01:38:07;;;;;;;10.68;4.03;;;;;;;;;;4974393;28;20082;-94
2021/11/19 01:40:43;;;;;;;8.35;3.65;;;;;;;;;;4969831;28;20086;-93
2021/11/19 01:43:32;;;;;;;9.77;3.97;;;;;;;;;;4957342;28;21530;-94
2021/11/19 01:46:13;;;;;;;10.57;4.00;;;;;;;;;;4958541;28;20496;-94
2021/11/19 01:48:45;;;;;;;9.95;3.83;;;;;;;;;;4955302;28;20050;-95
2021/11/19 01:51:19;;;;;;;8.98;3.60;;;;;;;;;;4957322;28;20466;-96
2021/11/19 01:53:52;;;;;;;13.52;3.65;;;;;;;;;;4958114;28;20061;-95
2021/11/19 01:56:25;;;;;;;9.20;3.80;;;;;;;;;;4966868;28;20053;-96
2021/11/19 01:58:59;;;;;;;13.20;4.07;;;;;;;;;;4956635;28;20046;-94
2021/11/19 02:01:32;;;;;;;11.80;4.13;;;;;;;;;;4963772;28;20047;-96
2021/11/19 02:04:04;;;;;;;14.10;4.15;;;;;;;;;;4961591;28;20058;-95
2021/11/19 02:06:36;;;;;;;8.95;3.85;;;;;;;;;;4955686;28;20061;-94
2021/11/19 02:09:21;;;;;;;16.48;4.47;;;;;;;;;;4973325;28;20050;-95
2021/11/19 02:11:58;;;;;;;12.03;3.60;;;;;;;;;;4968516;28;20050;-94
2021/11/19 02:14:36;;;;;;;10.65;3.88;;;;;;;;;;4977346;28;20062;-96
2021/11/19 02:17:08;;;;;;;12.63;4.32;;;;;;;;;;4964743;28;20117;-96
2021/11/19 02:19:46;;;;;;;10.90;4.38;;;;;;;;;;4954916;28;20054;-95
2021/11/19 02:22:18;;;;;;;11.23;4.10;;;;;;;;;;4956958;28;20507;-95
2021/11/19 02:24:49;;;;;;;14.90;3.73;;;;;;;;;;4966811;28;20116;-93
2021/11/19 02:27:32;;;;;;;9.27;3.50;;;;;;;;;;4978480;28;20057;-94
2021/11/19 02:30:07;;;;;;;9.77;3.90;;;;;;;;;;4966834;28;20493;-96
2021/11/19 02:32:48;;;;;;;7.75;3.40;;;;;;;;;;4957253;28;20412;-94
2021/11/19 02:35:20;;;;;;;11.55;3.90;;;;;;;;;;4971744;28;20057;-94
2021/11/19 02:37:53;;;;;;;9.63;4.10;;;;;;;;;;5001715;28;20027;-95
2021/11/19 02:40:25;;;;;;;9.98;4.43;;;;;;;;;;4967199;28;20162;-94
2021/11/19 02:42:57;;;;;;;12.60;4.20;;;;;;;;;;4964334;28;20077;-94
2021/11/19 02:45:30;;;;;;;9.15;3.90;;;;;;;;;;4957809;28;20055;-94
2021/11/19 02:48:08;;;;;;;15.30;5.00;;;;;;;;;;4958149;28;20043;-93
2021/11/19 02:50:38;;;;;;;13.63;4.93;;;;;;;;;;4956278;28;20079;-92
2021/11/19 02:53:09;;;;;;;11.45;4.68;;;;;;;;;;4971150;28;20082;-94
2021/11/19 02:55:40;;;;;;;10.02;4.15;;;;;;;;;;4956174;28;20049;-95
2021/11/19 02:58:34;;;;;;;12.48;4.32;;;;;;;;;;4942264;28;20047;-93
2021/11/19 03:01:12;;;;;;;10.80;3.97;;;;;;;;;;4955686;28;20058;-94
2021/11/19 03:04:09;;;;;;;18.67;5.07;;;;;;;;;;4945243;28;20189;-94
2021/11/19 03:06:41;;;;;;;15.60;4.68;;;;;;;;;;4940666;28;20111;-93
2021/11/19 03:09:11;;;;;;;10.05;4.40;;;;;;;;;;4956335;28;20043;-96
2021/11/19 03:11:41;;;;;;;10.00;3.70;;;;;;;;;;4957160;28;20054;-95
2021/11/19 03:14:13;;;;;;;18.00;4.85;;;;;;;;;;4940005;28;20043;-93
2021/11/19 03:16:45;;;;;;;13.63;4.20;;;;;;;;;;4954670;28;20083;-95
2021/11/19 03:19:14;;;;;;;11.52;3.78;;;;;;;;;;4939534;28;20063;-94
2021/11/19 03:24:39;;;;;;;11.00;4.03;;;;;;;;;;4958597;28;20534;-94
2021/11/19 03:27:11;;;;;;;14.45;4.00;;;;;;;;;;4940329;28;20051;-94
2021/11/19 03:29:50;;;;;;;10.00;3.70;;;;;;;;;;4939170;28;20510;-93
2021/11/19 03:32:23;;;;;;;10.93;4.18;;;;;;;;;;4942098;28;20157;-96
2021/11/19 03:37:52;;;;;;;14.13;3.53;;;;;;;;;;4937170;28;20043;-94
2021/11/19 03:40:23;;;;;;;10.65;3.78;;;;;;;;;;4935041;28;20080;-93
2021/11/19 03:42:59;;;;;;;12.70;3.97;;;;;;;;;;4943133;28;20190;-86
2021/11/19 03:45:31;;;;;;;13.23;3.88;;;;;;;;;;4931034;28;20524;-93
2021/11/19 03:48:02;;;;;;;11.93;3.53;;;;;;;;;;4939619;28;20047;-96
2021/11/19 03:50:34;;;;;;;15.65;4.05;;;;;;;;;;4935225;29;20051;-94
2021/11/19 03:53:04;;;;;;;9.02;3.53;;;;;;;;;;4948436;28;20294;-94
2021/11/19 03:55:37;;;;;;;19.13;4.80;;;;;;;;;;4942589;28;20078;-94
2021/11/19 04:01:14;;;;;;;7.20;3.10;;;;;;;;;;4941654;28;20059;-95
2021/11/19 04:03:49;;;;;;;11.20;3.53;;;;;;;;;;4941127;28;20083;-96
2021/11/19 04:06:19;;;;;;;12.38;3.53;;;;;;;;;;4946141;28;20085;-94
2021/11/19 04:08:49;;;;;;;17.43;4.33;;;;;;;;;;4939829;28;20545;-93
2021/11/19 04:11:20;;;;;;;12.98;4.45;;;;;;;;;;4941753;28;20047;-96
2021/11/19 04:13:52;;;;;;;12.55;4.30;;;;;;;;;;4939946;28;20094;-94
2021/11/19 04:16:23;;;;;;;14.98;4.10;;;;;;;;;;4937588;28;20053;-93
2021/11/19 04:18:53;;;;;;;10.25;4.35;;;;;;;;;;4948296;28;20486;-96
2021/11/19 04:21:24;;;;;;;11.20;3.87;;;;;;;;;;4930139;28;20050;-93
2021/11/19 04:23:55;;;;;;;10.85;3.63;;;;;;;;;;4937884;28;20103;-94
2021/11/19 04:26:27;;;;;;;12.07;3.90;;;;;;;;;;4938452;28;20053;-93
2021/11/19 04:28:56;;;;;;;11.85;3.97;;;;;;;;;;4937186;28;20389;-94
2021/11/19 04:31:36;;;;;;;12.02;3.63;;;;;;;;;;4939800;28;20078;-93
2021/11/19 04:34:09;;;;;;;13.03;4.20;;;;;;;;;;4942952;28;20157;-93
2021/11/19 04:36:40;;;;;;;11.23;3.65;;;;;;;;;;4935371;28;20075;-94
2021/11/19 04:39:11;;;;;;;16.17;4.25;;;;;;;;;;4938588;28;20062;-95
2021/11/19 04:41:41;;;;;;;14.48;4.18;;;;;;;;;;4961030;28;20058;-96
2021/11/19 04:44:11;;;;;;;8.85;4.30;;;;;;;;;;4938313;28;20051;-94
2021/11/19 04:46:45;;;;;;;10.53;3.77;;;;;;;;;;4954045;28;20382;-92
2021/11/19 04:49:16;;;;;;;18.80;4.97;;;;;;;;;;4937839;28;20549;-96
2021/11/19 04:51:47;;;;;;;15.98;4.90;;;;;;;;;;4933652;28;20474;-95
2021/11/19 04:54:18;;;;;;;13.48;3.97;;;;;;;;;;4936254;28;20086;-96
2021/11/19 04:56:51;;;;;;;8.27;3.92;;;;;;;;;;4928128;28;20047;-94
2021/11/19 04:59:21;;;;;;;16.07;4.77;;;;;;;;;;4925179;28;20059;-92
2021/11/19 05:01:52;;;;;;;14.35;4.25;;;;;;;;;;4953317;28;20062;-95
2021/11/19 05:04:43;;;;;;;11.65;4.03;;;;;;;;;;4932392;28;20043;-94
2021/11/19 05:07:16;;;;;;;14.20;5.32;;;;;;;;;;4932687;29;20104;-94
2021/11/19 05:09:45;;;;;;;12.88;4.10;;;;;;;;;;4930413;28;20082;-93
2021/11/19 05:12:18;;;;;;;10.23;5.13;;;;;;;;;;4926501;28;20230;-95
2021/11/19 05:14:50;;;;;;;19.35;5.05;;;;;;;;;;4937680;28;20518;-93
2021/11/19 05:17:22;;;;;;;13.38;5.32;;;;;;;;;;4944804;28;20091;-96
2021/11/19 05:19:57;;;;;;;11.00;4.63;;;;;;;;;;4926453;29;20471;-96
2021/11/19 05:22:27;;;;;;;17.08;5.03;;;;;;;;;;4933894;28;20062;-95
2021/11/19 05:24:58;;;;;;;16.13;5.80;;;;;;;;;;4942963;28;20055;-94
2021/11/19 05:27:38;;;;;;;16.00;5.30;;;;;;;;;;4966927;28;20062;-94
2021/11/19 05:30:08;;;;;;;13.25;5.07;;;;;;;;;;4946243;28;20044;-96
2021/11/19 05:32:50;;;;;;;13.95;5.18;;;;;;;;;;4959677;28;20053;-93
2021/11/19 05:35:24;;;;;;;9.52;4.47;;;;;;;;;;4920867;28;20470;-94
2021/11/19 05:37:54;;;;;;;16.07;5.50;;;;;;;;;;4938002;29;20102;-94
2021/11/19 05:40:58;;;;;;;13.32;5.50;;;;;;;;;;4936391;29;20051;-95
2021/11/19 05:43:30;;;;;;;14.13;5.50;;;;;;;;;;4948495;28;20047;-93
2021/11/19 05:46:13;;;;;;;13.15;4.30;;;;;;;;;;4929765;28;20098;-93
2021/11/19 05:48:50;;;;;;;15.10;5.70;;;;;;;;;;4936377;29;20051;-96
2021/11/19 05:51:23;;;;;;;12.47;5.10;;;;;;;;;;4968682;28;20054;-91
2021/11/19 05:53:52;;;;;;;16.35;6.25;;;;;;;;;;4954985;28;20120;-94
2021/11/19 05:56:24;;;;;;;13.63;4.97;;;;;;;;;;4960032;28;20068;-92
2021/11/19 05:58:54;;;;;;;12.27;5.13;;;;;;;;;;4955944;28;20051;-95
2021/11/19 06:01:50;;;;;;;15.63;5.40;;;;;;;;;;4986422;28;20063;-93
2021/11/19 06:04:19;;;;;;;15.43;5.17;;;;;;;;;;4948965;28;20051;-94
2021/11/19 06:06:54;;;;;;;14.60;6.13;;;;;;;;;;4952665;28;20057;-94
2021/11/19 06:09:42;;;;;;;11.90;5.78;;;;;;;;;;4968635;28;20125;-94
2021/11/19 06:12:15;;;;;;;14.63;5.70;;;;;;;;;;4951103;28;20073;-95
2021/11/19 06:14:48;;;;;;;14.43;5.97;;;;;;;;;;4961541;28;20142;-92
2021/11/19 06:17:20;;;;;;;15.83;6.33;;;;;;;;;;4951285;28;20051;-93
2021/11/19 06:19:54;;;;;;;14.52;5.72;;;;;;;;;;4959182;28;20051;-93
2021/11/19 06:22:28;;;;;;;16.15;6.38;;;;;;;;;;4951990;28;20081;-93
2021/11/19 06:24:59;;;;;;;18.55;6.85;;;;;;;;;;4958561;28;20142;-94
2021/11/19 06:27:31;;;;;;;15.00;5.53;;;;;;;;;;4961838;28;20154;-92
2021/11/19 06:30:00;;;;;;;16.80;5.40;;;;;;;;;;4956709;28;20057;-94
2021/11/19 06:32:32;;;;;;;16.25;6.43;;;;;;;;;;4958117;28;20573;-94
2021/11/19 06:35:02;;;;;;;17.10;6.45;;;;;;;;;;4957021;28;20424;-95
2021/11/19 06:37:34;;;;;;;17.38;6.88;;;;;;;;;;4949937;28;20113;-95
2021/11/19 06:40:35;;;;;;;19.17;6.35;;;;;;;;;;4969183;28;20233;-94
2021/11/19 06:43:23;;;;;;;19.20;6.77;;;;;;;;;;4993765;28;20424;-93
2021/11/19 06:46:17;;;;;;;16.77;6.30;;;;;;;;;;4985452;28;20054;-94
2021/11/19 06:48:59;;;;;;;14.75;6.00;;;;;;;;;;4987172;28;20054;-94
2021/11/19 06:51:46;;;;;;;22.95;7.10;;;;;;;;;;4944619;28;20468;-93
2021/11/19 06:54:35;;;;;;;18.35;6.53;;;;;;;;;;4987700;28;20052;-94
2021/11/19 06:57:28;;;;;;;14.30;5.43;;;;;;;;;;4969226;28;20102;-94
2021/11/19 06:59:58;;;;;;;27.70;6.95;;;;;;;;;;4955591;28;20042;-94
2021/11/19 07:02:29;;;;;;;18.30;6.53;;;;;;;;;;4940382;28;20075;-90
2021/11/19 07:04:58;;;;;;;21.92;7.70;;;;;;;;;;4949894;28;20180;-93
2021/11/19 07:07:28;;;;;;;10.43;6.00;;;;;;;;;;4952111;28;20063;-93
2021/11/19 07:09:59;;;;;;;18.13;6.27;;;;;;;;;;4950102;28;20051;-92
2021/11/19 07:12:29;;;;;;;17.30;6.97;;;;;;;;;;4964278;28;20050;-93
2021/11/19 07:15:11;;;;;;;20.52;6.72;;;;;;;;;;4961751;28;20046;-93
2021/11/19 07:17:40;;;;;;;20.80;6.93;;;;;;;;;;4953560;28;20102;-96
2021/11/19 07:20:12;;;;;;;15.00;6.53;;;;;;;;;;4974831;28;20078;-94
2021/11/19 07:22:43;;;;;;;19.57;5.77;;;;;;;;;;4970310;28;20065;-93
2021/11/19 07:25:18;;;;;;;17.70;6.30;;;;;;;;;;4947539;28;20089;-95
2021/11/19 07:27:49;;;;;;;16.88;7.45;;;;;;;;;;4956134;28;20105;-92
2021/11/19 07:30:20;;;;;;;18.13;6.47;;;;;;;;;;4948061;28;20125;-94
2021/11/19 07:33:09;;;;;;;19.58;6.13;;;;;;;;;;4971331;28;20058;-92
2021/11/19 07:35:59;;;;;;;17.40;5.53;;;;;;;;;;4956406;28;20061;-94
2021/11/19 07:39:07;;;;;;;15.57;6.03;;;;;;;;;;4960485;28;20128;-95
2021/11/19 07:41:57;;;;;;;17.85;6.10;;;;;;;;;;4973125;28;20042;-93
2021/11/19 07:44:56;;;;;;;16.98;5.45;;;;;;;;;;4953544;28;20193;-93
2021/11/19 07:47:50;;;;;;;16.20;5.97;;;;;;;;;;4949427;28;20058;-95
2021/11/19 07:50:22;;;;;;;12.97;5.30;;;;;;;;;;4951399;28;20093;-94
2021/11/19 07:52:51;;;;;;;16.88;5.45;;;;;;;;;;4957231;28;20098;-93
2021/11/19 07:55:22;;;;;;;22.08;6.90;;;;;;;;;;4956812;28;20094;-93
2021/11/19 07:57:54;;;;;;;22.10;6.25;;;;;;;;;;4959952;28;20038;-95
2021/11/19 08:00:30;;;;;;;14.57;5.90;;;;;;;;;;4959237;28;20126;-93
2021/11/19 08:03:08;;;;;;;15.27;6.07;;;;;;;;;;4970029;28;20093;-94
2021/11/19 08:05:38;;;;;;;13.98;5.70;;;;;;;;;;4966886;28;20080;-94
2021/11/19 08:08:24;;;;;;;23.33;5.88;;;;;;;;;;4960668;28;20476;-91
2021/11/19 08:11:11;;;;;;;20.65;5.68;;;;;;;;;;4969761;28;20451;-94
2021/11/19 08:13:43;;;;;;;16.13;5.90;;;;;;;;;;4976239;28;20061;-93
2021/11/19 08:16:13;;;;;;;21.20;5.47;;;;;;;;;;4985290;28;20050;-94
2021/11/19 08:18:59;;;;;;;22.67;6.53;;;;;;;;;;5000925;28;20198;-94
2021/11/19 08:21:31;;;;;;;19.20;6.30;;;;;;;;;;4963215;28;20046;-94
2021/11/19 08:24:03;;;;;;;15.95;5.47;;;;;;;;;;4960409;28;20042;-95
2021/11/19 08:26:36;;;;;;;19.75;5.25;;;;;;;;;;4963504;28;20057;-93
2021/11/19 08:29:12;;;;;;;19.93;5.53;;;;;;;;;;4960614;28;20046;-96
2021/11/19 08:31:42;;;;;;;13.20;5.10;;;;;;;;;;4975251;28;20100;-94
2021/11/19 08:34:12;;;;;;;12.95;4.63;;;;;;;;;;4957541;28;20042;-95
2021/11/19 08:36:41;;;;;;;17.90;6.10;;;;;;;;;;4959411;28;20125;-95
2021/11/19 08:39:11;;;;;;;11.98;4.70;;;;;;;;;;4959334;28;20054;-94
2021/11/19 08:41:41;;;;;;;16.40;5.80;;;;;;;;;;4971102;28;20046;-94
2021/11/19 08:44:16;;;;;;;17.15;5.78;;;;;;;;;;4975172;28;20662;-93
2021/11/19 08:47:07;;;;;;;15.40;5.93;;;;;;;;;;4974665;28;20042;-94
2021/11/19 08:49:38;;;;;;;14.65;5.50;;;;;;;;;;4963922;28;20054;-92
2021/11/19 08:52:08;;;;;;;18.83;6.13;;;;;;;;;;4954219;28;20110;-95
2021/11/19 08:54:38;;;;;;;15.93;6.20;;;;;;;;;;4954291;28;20050;-91
2021/11/19 08:57:10;;;;;;;12.95;5.75;;;;;;;;;;4988146;28;20058;-90
2021/11/19 08:59:47;;;;;;;15.73;5.90;;;;;;;;;;4972749;28;20069;-90
2021/11/19 09:02:17;;;;;;;16.95;5.68;;;;;;;;;;4959512;28;20042;-89
2021/11/19 09:05:02;;;;;;;10.38;4.70;;;;;;;;;;4943229;28;20050;-88
2021/11/19 09:07:33;;;;;;;15.00;5.30;;;;;;;;;;4963945;28;20047;-89
2021/11/19 09:10:06;;;;;;;13.25;4.40;;;;;;;;;;4958271;28;20141;-90
2021/11/19 09:12:35;;;;;;;12.30;4.75;;;;;;;;;;4955622;28;20465;-89
2021/11/19 09:15:08;;;;;;;13.70;4.80;;;;;;;;;;4983102;28;20153;-90
2021/11/19 09:17:52;;;;;;;13.90;5.47;;;;;;;;;;4956042;28;20054;-89
2021/11/19 09:20:23;;;;;;;16.60;6.03;;;;;;;;;;4962403;28;20474;-89
2021/11/19 09:22:55;;;;;;;15.85;6.45;;;;;;;;;;4955258;28;20498;-91
2021/11/19 09:25:27;;;;;;;14.88;5.25;;;;;;;;;;4953088;28;20061;-90
2021/11/19 09:27:57;;;;;;;12.68;4.78;;;;;;;;;;4957503;28;20418;-89
2021/11/19 09:30:54;;;;;;;13.05;5.18;;;;;;;;;;4971122;28;20054;-90
2021/11/19 09:33:25;;;;;;;13.20;4.80;;;;;;;;;;4953928;28;20043;-89
2021/11/19 09:35:54;;;;;;;11.73;5.45;;;;;;;;;;4978612;28;20480;-87
2021/11/19 09:38:24;;;;;;;12.15;4.00;;;;;;;;;;4957157;28;20124;-91
2021/11/19 09:40:58;;;;;;;11.18;4.75;;;;;;;;;;4968305;28;20043;-89
2021/11/19 09:43:33;;;;;;;14.73;5.10;;;;;;;;;;4957925;28;20046;-89
2021/11/19 09:46:29;;;;;;;12.17;4.07;;;;;;;;;;4955303;28;20050;-91
2021/11/19 09:49:11;;;;;;;10.82;3.92;;;;;;;;;;4952174;28;20043;-92
2021/11/19 09:51:59;;;;;;;9.25;4.38;;;;;;;;;;4955118;28;20050;-90
2021/11/19 09:54:47;;;;;;;8.05;3.45;;;;;;;;;;4979820;28;20121;-90
2021/11/19 09:57:38;;;;;;;5.80;2.38;;;;;;;;;;4955080;28;20073;-89
2021/11/19 10:00:14;;;;;;;5.90;2.23;;;;;;;;;;4954586;28;20498;-89
2021/11/19 10:03:06;;;;;;;10.00;2.33;;;;;;;;;;4941904;28;20110;-92
2021/11/19 10:05:42;;;;;;;7.40;2.80;;;;;;;;;;4968468;28;20105;-90
2021/11/19 10:08:23;;;;;;;7.50;2.50;;;;;;;;;;4954442;28;20073;-90
2021/11/19 10:10:57;;;;;;;6.95;2.53;;;;;;;;;;4966967;28;20069;-89
2021/11/19 10:13:32;;;;;;;7.73;2.30;;;;;;;;;;4948441;28;20502;-89
2021/11/19 10:16:13;;;;;;;5.70;2.90;;;;;;;;;;4959179;28;20137;-90
2021/11/19 10:18:46;;;;;;;6.88;2.50;;;;;;;;;;4962366;28;20153;-92
2021/11/19 10:21:26;;;;;;;5.95;2.47;;;;;;;;;;4951744;28;20591;-90
2021/11/19 10:24:01;;;;;;;7.88;2.30;;;;;;;;;;4958310;28;20049;-91
2021/11/19 10:26:34;;;;;;;6.50;2.07;;;;;;;;;;4956068;28;20050;-90
2021/11/19 10:29:06;;;;;;;6.38;1.92;;;;;;;;;;4970266;28;20336;-90
2021/11/19 10:31:36;;;;;;;5.45;2.42;;;;;;;;;;4979657;28;20051;-90
2021/11/19 10:34:12;;;;;;;6.65;2.33;;;;;;;;;;4959630;28;20114;-89
2021/11/19 10:36:44;;;;;;;7.25;1.77;;;;;;;;;;4962560;28;20066;-89
2021/11/19 10:39:36;;;;;;;5.60;2.27;;;;;;;;;;4967190;28;20072;-89
2021/11/19 10:42:18;;;;;;;7.40;2.05;;;;;;;;;;4957846;28;20483;-90
2021/11/19 10:44:55;;;;;;;9.00;1.92;;;;;;;;;;4957584;28;20469;-90
2021/11/19 10:47:38;;;;;;;5.13;1.90;;;;;;;;;;4958860;28;20047;-89
2021/11/19 10:50:30;;;;;;;6.82;2.83;;;;;;;;;;4971811;28;20468;-89
2021/11/19 10:53:20;;;;;;;7.47;2.17;;;;;;;;;;4960848;28;20472;-90
2021/11/19 10:56:14;;;;;;;10.98;2.47;;;;;;;;;;4953693;28;20050;-89
2021/11/19 10:58:52;;;;;;;8.55;3.30;;;;;;;;;;4963780;28;20051;-88
2021/11/19 11:01:48;;;;;;;8.35;3.30;;;;;;;;;;4987983;28;20059;-89
2021/11/19 11:04:21;;;;;;;7.05;3.10;;;;;;;;;;4958387;28;20060;-90
2021/11/19 11:06:53;;;;;;;8.10;2.90;;;;;;;;;;4954862;28;20081;-91
2021/11/19 11:09:29;;;;;;;6.88;2.10;;;;;;;;;;4952168;28;20050;-94
2021/11/19 11:12:08;;;;;;;7.18;2.65;;;;;;;;;;4957065;28;20149;-91
2021/11/19 11:14:39;;;;;;;7.10;2.45;;;;;;;;;;4962409;28;20081;-93
2021/11/19 11:17:26;;;;;;;8.75;2.42;;;;;;;;;;4955804;28;20140;-90
2021/11/19 11:20:20;;;;;;;7.87;3.13;;;;;;;;;;4957456;28;20059;-90
2021/11/19 11:23:24;;;;;;;8.40;3.15;;;;;;;;;;4966417;28;20499;-90
2021/11/19 11:25:59;;;;;;;8.82;2.95;;;;;;;;;;4964173;28;20046;-90
2021/11/19 11:28:47;;;;;;;7.55;2.78;;;;;;;;;;4957233;28;20060;-89
2021/11/19 11:31:27;;;;;;;7.95;3.00;;;;;;;;;;4962962;28;20047;-90
2021/11/19 11:33:59;;;;;;;9.27;3.20;;;;;;;;;;4951709;28;20505;-90
2021/11/19 11:36:32;;;;;;;6.63;2.65;;;;;;;;;;4959549;28;20145;-91
2021/11/19 11:39:09;;;;;;;5.75;2.63;;;;;;;;;;4960741;28;20488;-91
2021/11/19 11:41:44;;;;;;;5.85;2.70;;;;;;;;;;4973113;28;20058;-90
2021/11/19 11:44:17;;;;;;;7.97;2.92;;;;;;;;;;4960260;28;20054;-90
2021/11/19 11:46:58;;;;;;;7.33;2.57;;;;;;;;;;4957240;28;20070;-90
2021/11/19 11:49:43;;;;;;;5.55;2.13;;;;;;;;;;4959879;28;20100;-90
2021/11/19 11:52:33;;;;;;;4.82;2.03;;;;;;;;;;4955098;28;20054;-92
2021/11/19 11:55:14;;;;;;;9.15;2.55;;;;;;;;;;4983634;28;20051;-93
2021/11/19 11:57:46;;;;;;;8.35;2.53;;;;;;;;;;4959293;28;20062;-91
2021/11/19 12:00:18;;;;;;;7.43;2.33;;;;;;;;;;4969906;28;20145;-93
2021/11/19 12:02:54;;;;;;;7.72;3.10;;;;;;;;;;4955161;28;20058;-91
2021/11/19 12:05:36;;;;;;;8.93;3.38;;;;;;;;;;4960551;28;20084;-90
2021/11/19 12:08:23;;;;;;;10.77;4.43;;;;;;;;;;4968546;28;20164;-93
2021/11/19 12:11:06;;;;;;;15.40;4.10;;;;;;;;;;4958028;28;20498;-92
2021/11/19 12:13:40;;;;;;;11.83;3.87;;;;;;;;;;4975299;28;20489;-92
2021/11/19 12:16:14;;;;;;;9.60;3.78;;;;;;;;;;4963260;28;20054;-92
2021/11/19 12:18:48;;;;;;;8.35;3.55;;;;;;;;;;4969994;28;20129;-91
2021/11/19 12:21:25;;;;;;;9.20;3.35;;;;;;;;;;4970347;28;20101;-91
2021/11/19 12:23:58;;;;;;;9.52;4.18;;;;;;;;;;4967265;28;20055;-90
2021/11/19 12:26:46;;;;;;;9.53;3.77;;;;;;;;;;4969620;28;20058;-91
2021/11/19 12:29:18;;;;;;;9.73;3.40;;;;;;;;;;4956172;28;20067;-91
2021/11/19 12:31:51;;;;;;;9.20;4.15;;;;;;;;;;4953960;28;20054;-89
2021/11/19 12:34:23;;;;;;;13.07;4.07;;;;;;;;;;4955741;28;20051;-91
2021/11/19 12:36:56;;;;;;;10.77;3.75;;;;;;;;;;4958802;28;20043;-92
2021/11/19 12:39:26;;;;;;;11.23;4.13;;;;;;;;;;4966265;28;20046;-92
2021/11/19 12:42:03;;;;;;;8.25;3.60;;;;;;;;;;4953974;28;20045;-91
2021/11/19 12:44:51;;;;;;;12.75;4.38;;;;;;;;;;4954314;28;20117;-92
2021/11/19 12:47:35;;;;;;;12.13;4.57;;;;;;;;;;4958557;28;20073;-92
2021/11/19 12:50:19;;;;;;;12.95;4.40;;;;;;;;;;4948704;28;20141;-90
2021/11/19 12:53:20;;;;;;;12.03;3.97;;;;;;;;;;4951607;28;20050;-91
2021/11/19 12:56:07;;;;;;;13.65;5.10;;;;;;;;;;4973598;28;20062;-91
2021/11/19 12:58:44;;;;;;;10.80;5.15;;;;;;;;;;4966163;28;20054;-90
2021/11/19 13:01:33;;;;;;;14.57;4.63;;;;;;;;;;4965146;28;20137;-91
2021/11/19 13:04:18;;;;;;;14.25;4.82;;;;;;;;;;4965208;28;20144;-91
2021/11/19 13:06:53;;;;;;;13.23;5.53;;;;;;;;;;4958828;28;20050;-89
2021/11/19 13:09:41;;;;;;;11.13;4.57;;;;;;;;;;4958269;28;20068;-92
2021/11/19 13:12:17;;;;;;;15.00;5.15;;;;;;;;;;4952943;28;20108;-90
2021/11/19 13:14:50;;;;;;;17.10;5.75;;;;;;;;;;4953151;28;20062;-91
2021/11/19 13:17:39;;;;;;;11.13;5.32;;;;;;;;;;4960757;28;20058;-92
2021/11/19 13:20:28;;;;;;;14.33;5.93;;;;;;;;;;4966718;28;20046;-92
2021/11/19 13:22:59;;;;;;;14.77;5.72;;;;;;;;;;4957990;28;20081;-91
2021/11/19 13:25:41;;;;;;;16.13;5.65;;;;;;;;;;4973772;28;20506;-89
2021/11/19 13:28:11;;;;;;;14.30;6.00;;;;;;;;;;4983177;28;20053;-90
2021/11/19 13:30:46;;;;;;;13.77;5.90;;;;;;;;;;4950174;28;20065;-91
2021/11/19 13:33:23;;;;;;;14.53;5.63;;;;;;;;;;4956118;28;20086;-91
2021/11/19 13:36:13;;;;;;;13.40;5.70;;;;;;;;;;4948646;28;20051;-92
2021/11/19 13:39:14;;;;;;;19.25;7.22;;;;;;;;;;4946892;28;20053;-92
2021/11/19 13:41:48;;;;;;;15.10;6.72;;;;;;;;;;4979754;28;20161;-90
2021/11/19 13:44:36;;;;;;;14.50;6.32;;;;;;;;;;4958207;28;20057;-90
2021/11/19 13:47:21;;;;;;;16.50;5.60;;;;;;;;;;4951590;28;20042;-92
2021/11/19 13:50:00;;;;;;;14.25;5.80;;;;;;;;;;4956673;28;20054;-91
2021/11/19 13:52:31;;;;;;;15.77;5.72;;;;;;;;;;4953823;28;20105;-91
2021/11/19 13:55:15;;;;;;;14.70;6.63;;;;;;;;;;4970601;28;20089;-92
2021/11/19 13:58:13;;;;;;;13.32;5.72;;;;;;;;;;4950803;28;20081;-92
2021/11/19 14:00:50;;;;;;;15.03;5.90;;;;;;;;;;4969020;28;20108;-90
2021/11/19 14:03:21;;;;;;;15.38;6.68;;;;;;;;;;4957942;28;20111;-91
2021/11/19 14:05:53;;;;;;;13.70;5.65;;;;;;;;;;4952792;28;20054;-93
2021/11/19 14:08:23;;;;;;;16.95;6.50;;;;;;;;;;4977081;28;20050;-90
2021/11/19 14:10:56;;;;;;;15.20;5.70;;;;;;;;;;4959706;28;20489;-92
2021/11/19 14:13:28;;;;;;;15.60;5.03;;;;;;;;;;4969617;28;20061;-92
2021/11/19 14:16:03;;;;;;;14.93;5.90;;;;;;;;;;4961188;28;20077;-90
2021/11/19 14:18:49;;;;;;;14.55;5.90;;;;;;;;;;4961752;28;20074;-90
2021/11/19 14:24:13;;;;;;;12.95;5.40;;;;;;;;;;4991793;28;20054;-94
2021/11/19 14:26:45;;;;;;;14.13;5.17;;;;;;;;;;4964654;28;20057;-89
2021/11/19 14:29:18;;;;;;;11.70;5.03;;;;;;;;;;4957241;28;20113;-90
2021/11/19 14:31:52;;;;;;;11.35;3.88;;;;;;;;;;4960892;28;20072;-91
2021/11/19 14:34:35;;;;;;;8.48;3.90;;;;;;;;;;4953371;28;20049;-90
2021/11/19 14:37:14;;;;;;;9.55;3.92;;;;;;;;;;4971980;28;20062;-89
2021/11/19 14:39:54;;;;;;;10.50;3.93;;;;;;;;;;4967498;28;20188;-91
2021/11/19 14:42:25;;;;;;;12.38;4.40;;;;;;;;;;4958893;28;20055;-91
2021/11/19 14:44:57;;;;;;;11.23;4.35;;;;;;;;;;4959606;28;20042;-91
2021/11/19 14:47:31;;;;;;;12.30;5.05;;;;;;;;;;4971588;28;20240;-90
2021/11/19 14:50:08;;;;;;;12.00;4.07;;;;;;;;;;4968382;28;20046;-89
2021/11/19 14:52:49;;;;;;;16.30;4.93;;;;;;;;;;4967196;28;20133;-92
2021/11/19 14:55:23;;;;;;;11.20;5.05;;;;;;;;;;4953148;28;20050;-92
2021/11/19 14:57:55;;;;;;;13.25;5.78;;;;;;;;;;4963762;28;20046;-91
2021/11/19 15:00:31;;;;;;;13.68;5.55;;;;;;;;;;4956186;28;20118;-92
2021/11/19 15:03:02;;;;;;;12.48;4.55;;;;;;;;;;4970854;28;20050;-90
2021/11/19 15:05:38;;;;;;;16.27;5.00;;;;;;;;;;4967472;28;20061;-89
2021/11/19 15:08:18;;;;;;;15.43;4.85;;;;;;;;;;4957826;28;20054;-91
2021/11/19 15:10:57;;;;;;;10.10;4.38;;;;;;;;;;4962147;28;20082;-93
2021/11/19 15:13:29;;;;;;;10.00;4.57;;;;;;;;;;4975816;28;20523;-91
2021/11/19 15:16:13;;;;;;;10.68;4.60;;;;;;;;;;4956286;28;20462;-90
2021/11/19 15:18:47;;;;;;;11.70;4.77;;;;;;;;;;4981581;28;20385;-90
2021/11/19 15:21:24;;;;;;;7.75;3.97;;;;;;;;;;4953072;28;20063;-89
2021/11/19 15:23:58;;;;;;;8.73;4.10;;;;;;;;;;4968518;28;20088;-90
2021/11/19 15:26:33;;;;;;;12.27;4.10;;;;;;;;;;4983668;28;20047;-91
2021/11/19 15:29:16;;;;;;;10.05;3.88;;;;;;;;;;4961933;28;20133;-92
2021/11/19 15:31:57;;;;;;;10.23;3.43;;;;;;;;;;4968899;28;20142;-90
2021/11/19 15:34:30;;;;;;;8.52;3.70;;;;;;;;;;4963768;28;20053;-89
2021/11/19 15:37:18;;;;;;;14.68;4.80;;;;;;;;;;4955999;28;20070;-89
2021/11/19 15:39:52;;;;;;;10.57;4.35;;;;;;;;;;4953635;28;20391;-90